Time;durP1;ratioP1;P1;durP2;ratioP2;P2;SDS_P1;SDS_P2;PMS_P1;PMS_P2;Temp;Humidity;BMP_temperature;BMP_pressure;BME280_temperature;BME280_humidity;BME280_pressure;Samples;Min_cycle;Max_cycle;Signal;HPM_P1;HPM_P2
2022/04/26 03:36:54;;;;;;;35.17;14.23;;;5.20;99.90;;;;;;5224124;28;20524;-49
2022/04/26 03:39:25;;;;;;;32.50;13.53;;;5.20;99.90;;;;;;5222961;28;20534;-49
2022/04/26 03:41:55;;;;;;;24.13;13.13;;;5.20;99.90;;;;;;5224547;28;20573;-49
2022/04/26 03:44:26;;;;;;;28.73;14.50;;;5.20;99.90;;;;;;5220949;28;20553;-48
2022/04/26 03:46:57;;;;;;;33.60;15.23;;;5.10;99.90;;;;;;5237016;28;20645;-49
2022/04/26 03:49:27;;;;;;;26.13;14.03;;;5.10;99.90;;;;;;5223719;28;20549;-49
2022/04/26 03:51:58;;;;;;;24.03;13.90;;;5.10;99.90;;;;;;5225428;28;20274;-50
2022/04/26 03:54:28;;;;;;;34.23;16.10;;;5.10;99.90;;;;;;5223438;28;20201;-51
2022/04/26 03:56:59;;;;;;;34.87;15.83;;;5.10;99.90;;;;;;5223514;28;20791;-49
2022/04/26 03:59:29;;;;;;;30.90;15.33;;;5.10;99.90;;;;;;5224081;28;20199;-50
2022/04/26 04:02:00;;;;;;;27.17;15.90;;;5.20;99.90;;;;;;5223098;28;20187;-50
2022/04/26 04:04:30;;;;;;;32.80;15.40;;;5.20;99.90;;;;;;5221500;28;20232;-49
2022/04/26 04:07:01;;;;;;;27.73;15.23;;;5.20;99.90;;;;;;5223077;28;20179;-49
2022/04/26 04:09:31;;;;;;;26.50;12.53;;;5.20;99.90;;;;;;5238587;28;20204;-50
2022/04/26 04:12:02;;;;;;;23.40;15.30;;;5.30;99.90;;;;;;5221771;28;20169;-50
2022/04/26 04:14:32;;;;;;;29.60;15.80;;;5.30;99.90;;;;;;5215066;28;20650;-49
2022/04/26 04:17:03;;;;;;;29.97;14.27;;;5.40;99.90;;;;;;5215945;28;20181;-50
2022/04/26 04:19:34;;;;;;;32.50;14.17;;;5.50;99.90;;;;;;5221316;28;20231;-51
2022/04/26 04:22:05;;;;;;;31.17;13.13;;;5.60;99.90;;;;;;5206080;28;20189;-50
2022/04/26 04:24:36;;;;;;;20.63;13.60;;;5.70;99.90;;;;;;5218841;28;20230;-49
2022/04/26 04:27:09;;;;;;;24.40;13.10;;;5.70;99.90;;;;;;5226538;28;20531;-49
2022/04/26 04:29:39;;;;;;;22.40;13.07;;;5.80;99.90;;;;;;5223470;28;20216;-50
2022/04/26 04:32:10;;;;;;;31.10;13.90;;;5.90;99.90;;;;;;5215575;28;20433;-49
2022/04/26 04:34:41;;;;;;;17.67;12.90;;;6.00;99.90;;;;;;5226800;28;20262;-49
2022/04/26 04:37:11;;;;;;;25.27;12.73;;;6.20;99.90;;;;;;5215243;28;20443;-50
2022/04/26 04:39:42;;;;;;;25.17;11.70;;;6.60;99.90;;;;;;5219702;28;20204;-49
2022/04/26 04:42:14;;;;;;;17.83;11.10;;;7.00;99.90;;;;;;5205520;28;20268;-49
2022/04/26 04:44:44;;;;;;;17.43;11.97;;;7.20;99.90;;;;;;5216418;28;20279;-50
2022/04/26 04:47:15;;;;;;;22.07;13.03;;;7.50;99.90;;;;;;5221988;28;20480;-52
2022/04/26 04:49:46;;;;;;;24.10;11.80;;;7.50;99.90;;;;;;5212087;28;20279;-50
2022/04/26 04:52:17;;;;;;;16.57;10.47;;;7.50;99.90;;;;;;5220187;28;20190;-50
2022/04/26 04:54:47;;;;;;;16.63;9.70;;;7.70;99.90;;;;;;5222690;28;20171;-49
2022/04/26 04:57:18;;;;;;;19.67;10.97;;;8.20;99.90;;;;;;5220502;28;20436;-51
2022/04/26 04:59:48;;;;;;;15.40;9.60;;;8.80;99.90;;;;;;5214338;28;20269;-49
2022/04/26 05:02:19;;;;;;;22.50;10.90;;;9.40;99.90;;;;;;5199724;28;20829;-48
2022/04/26 05:04:50;;;;;;;16.67;11.03;;;9.40;99.90;;;;;;5219979;28;20230;-48
2022/04/26 05:07:20;;;;;;;13.40;9.73;;;9.20;99.90;;;;;;5230390;28;20182;-50
2022/04/26 05:09:52;;;;;;;25.23;10.57;;;9.30;99.90;;;;;;5220960;28;20198;-50
2022/04/26 05:12:22;;;;;;;19.57;10.10;;;9.10;99.90;;;;;;5216891;28;20167;-49
2022/04/26 05:14:53;;;;;;;14.13;10.13;;;9.10;99.90;;;;;;5219707;28;20441;-48
2022/04/26 05:17:23;;;;;;;14.47;10.50;;;9.10;99.90;;;;;;5215344;28;20183;-51
2022/04/26 05:19:55;;;;;;;17.60;9.37;;;9.60;99.90;;;;;;5213764;28;20210;-50
2022/04/26 05:22:25;;;;;;;12.60;8.40;;;10.60;99.90;;;;;;5221631;28;20595;-51
2022/04/26 05:24:59;;;;;;;12.50;8.30;;;12.20;99.90;;;;;;5236820;28;20496;-51
2022/04/26 05:27:31;;;;;;;13.67;9.47;;;13.50;84.40;;;;;;5221715;28;20543;-49
2022/04/26 05:30:02;;;;;;;12.63;7.50;;;14.10;73.80;;;;;;5224150;28;20465;-50
2022/04/26 05:32:33;;;;;;;15.33;8.90;;;14.30;68.40;;;;;;5219534;28;20940;-50
2022/04/26 05:35:04;;;;;;;15.33;9.50;;;14.10;65.20;;;;;;5237841;28;20333;-50
2022/04/26 05:37:35;;;;;;;10.30;8.10;;;14.00;64.50;;;;;;5213778;28;20199;-50
2022/04/26 05:40:06;;;;;;;12.43;8.13;;;14.00;65.40;;;;;;5219094;28;20453;-51
2022/04/26 05:42:40;;;;;;;15.90;9.20;;;14.70;63.30;;;;;;5222372;28;20227;-50
2022/04/26 05:45:10;;;;;;;18.27;8.90;;;15.40;58.60;;;;;;5214088;28;20557;-50
2022/04/26 05:47:42;;;;;;;23.63;8.80;;;15.80;56.20;;;;;;5221644;28;20479;-50
2022/04/26 05:50:13;;;;;;;12.70;7.90;;;16.10;55.00;;;;;;5219528;28;20556;-51
2022/04/26 05:52:43;;;;;;;20.57;9.43;;;16.60;53.00;;;;;;5217329;28;20486;-51
2022/04/26 05:55:14;;;;;;;15.73;9.53;;;16.60;50.60;;;;;;5229148;28;20179;-49
2022/04/26 05:57:45;;;;;;;15.17;7.17;;;16.40;51.60;;;;;;5219907;28;20183;-50
2022/04/26 06:00:16;;;;;;;14.60;7.93;;;17.00;49.80;;;;;;5221584;28;20457;-49
2022/04/26 06:02:48;;;;;;;15.87;7.77;;;17.50;48.80;;;;;;5222869;28;20457;-49
2022/04/26 06:05:20;;;;;;;12.40;6.83;;;18.60;46.10;;;;;;5219451;28;20861;-49
2022/04/26 06:07:50;;;;;;;27.83;8.47;;;18.90;43.80;;;;;;5197242;28;20537;-49
2022/04/26 06:10:22;;;;;;;14.43;6.90;;;18.70;43.00;;;;;;5221906;28;20520;-49
2022/04/26 06:12:53;;;;;;;16.63;6.60;;;18.60;42.50;;;;;;5203927;28;20174;-49
2022/04/26 06:15:24;;;;;;;10.60;6.60;;;18.40;42.00;;;;;;5222698;28;20512;-49
2022/04/26 06:17:54;;;;;;;6.90;6.10;;;19.30;40.80;;;;;;5219125;28;20233;-50
2022/04/26 06:20:25;;;;;;;9.40;5.40;;;19.90;39.30;;;;;;5216722;28;20646;-50
2022/04/26 06:22:56;;;;;;;7.20;5.03;;;19.60;38.10;;;;;;5232002;28;20193;-50
2022/04/26 06:25:26;;;;;;;10.60;4.87;;;19.40;38.10;;;;;;5211477;28;20438;-50
2022/04/26 06:27:57;;;;;;;9.00;5.03;;;19.20;37.20;;;;;;5233239;28;20268;-49
2022/04/26 06:30:29;;;;;;;6.20;4.50;;;19.60;37.20;;;;;;5211601;28;20228;-50
2022/04/26 06:32:59;;;;;;;6.37;4.83;;;20.20;35.50;;;;;;5217631;28;20183;-50
2022/04/26 06:35:29;;;;;;;5.23;3.53;;;20.70;35.90;;;;;;5221298;28;20934;-50
2022/04/26 06:38:00;;;;;;;3.37;3.17;;;21.50;33.50;;;;;;5221770;28;20175;-51
2022/04/26 06:40:31;;;;;;;5.33;3.50;;;22.00;31.90;;;;;;5214393;28;20214;-53
2022/04/26 06:43:01;;;;;;;4.07;3.77;;;22.30;31.30;;;;;;5213019;28;20563;-51
2022/04/26 06:45:33;;;;;;;6.03;3.13;;;22.10;31.10;;;;;;5221178;28;20186;-49
2022/04/26 06:48:10;;;;;;;3.47;3.27;;;21.60;30.30;;;;;;5216704;28;20190;-51
2022/04/26 06:50:42;;;;;;;3.10;2.90;;;21.40;31.20;;;;;;5218970;28;20827;-50
2022/04/26 06:53:13;;;;;;;4.50;4.10;;;22.20;30.20;;;;;;5216639;28;20805;-50
2022/04/26 06:55:43;;;;;;;3.63;3.43;;;23.60;29.50;;;;;;5216036;28;20464;-51
2022/04/26 06:58:14;;;;;;;4.93;3.13;;;23.70;28.10;;;;;;5220353;28;20183;-51
2022/04/26 07:00:46;;;;;;;3.93;3.20;;;23.20;28.00;;;;;;5215437;28;20199;-50
2022/04/26 07:03:18;;;;;;;3.30;3.10;;;22.90;28.00;;;;;;5220852;28;20249;-51
2022/04/26 07:05:51;;;;;;;3.23;3.03;;;22.90;28.80;;;;;;5222805;28;20447;-50
2022/04/26 07:08:21;;;;;;;3.20;2.43;;;23.10;28.80;;;;;;5217523;28;20456;-51
2022/04/26 07:10:52;;;;;;;5.30;2.80;;;23.20;27.30;;;;;;5215805;28;20470;-49
2022/04/26 07:13:22;;;;;;;10.20;3.30;;;22.40;26.80;;;;;;5216069;28;20187;-52
2022/04/26 07:15:53;;;;;;;5.83;3.40;;;22.40;28.50;;;;;;5218676;28;20182;-51
2022/04/26 07:18:23;;;;;;;5.80;3.00;;;23.00;27.70;;;;;;5205820;28;21242;-50
2022/04/26 07:20:54;;;;;;;4.50;3.10;;;23.00;27.40;;;;;;5218673;28;20241;-50
2022/04/26 07:23:25;;;;;;;3.07;2.70;;;23.00;27.50;;;;;;5230889;28;20217;-50
2022/04/26 07:25:55;;;;;;;2.50;2.30;;;23.40;27.50;;;;;;5218865;28;20248;-49
2022/04/26 07:28:26;;;;;;;3.40;2.10;;;24.40;26.30;;;;;;5222419;28;20595;-50
2022/04/26 07:30:57;;;;;;;4.57;2.70;;;25.40;25.80;;;;;;5218212;28;20202;-51
2022/04/26 07:36:16;;;;;;;3.60;2.40;;;26.20;24.20;;;;;;5220414;28;20194;-51
2022/04/26 07:38:47;;;;;;;6.03;2.30;;;26.20;24.00;;;;;;5218733;28;20866;-51
2022/04/26 07:41:17;;;;;;;4.93;2.23;;;25.50;23.90;;;;;;5215801;28;20210;-51
2022/04/26 07:43:48;;;;;;;2.50;2.30;;;25.10;24.40;;;;;;5218450;28;20207;-50
2022/04/26 07:46:18;;;;;;;6.30;1.97;;;25.00;24.70;;;;;;5225603;28;20248;-51
2022/04/26 07:48:49;;;;;;;3.53;2.63;;;24.50;24.80;;;;;;5237632;28;20179;-49
2022/04/26 07:51:20;;;;;;;4.13;2.20;;;24.00;24.90;;;;;;5250897;23;20555;-53
2022/04/26 07:53:50;;;;;;;2.20;2.10;;;24.60;24.90;;;;;;5243313;28;20194;-52
2022/04/26 07:56:21;;;;;;;3.80;2.00;;;25.40;24.20;;;;;;5249183;28;20188;-56
2022/04/26 07:58:52;;;;;;;3.00;2.70;;;26.40;23.30;;;;;;5244436;28;20197;-52
2022/04/26 08:01:24;;;;;;;2.47;2.20;;;27.10;22.80;;;;;;5252815;28;20201;-54
2022/04/26 08:03:55;;;;;;;4.10;2.23;;;27.00;22.20;;;;;;5272474;28;20467;-54
2022/04/26 08:06:25;;;;;;;2.40;1.10;;;26.10;22.40;;;;;;5266676;28;20514;-56
2022/04/26 08:08:58;;;;;;;1.30;1.20;;;24.90;20.70;;;;;;5275424;28;20509;-53
2022/04/26 08:11:29;;;;;;;1.60;1.50;;;24.90;21.20;;;;;;5269112;28;20198;-52
2022/04/26 08:14:00;;;;;;;1.10;1.10;;;25.40;21.20;;;;;;5251796;28;20492;-56
2022/04/26 08:16:30;;;;;;;1.70;1.60;;;25.50;21.40;;;;;;5259754;28;20189;-58
2022/04/26 08:19:01;;;;;;;3.33;1.50;;;24.90;21.40;;;;;;5257400;28;20436;-56
2022/04/26 08:21:31;;;;;;;1.10;1.03;;;24.10;21.40;;;;;;5265220;28;20673;-56
2022/04/26 08:29:40;;;;;;;1.43;1.33;;;22.40;23.20;;;;;;5264729;28;21039;-55
2022/04/26 08:32:10;;;;;;;4.10;1.50;;;22.00;24.20;;;;;;5270929;28;20419;-57
2022/04/26 08:34:42;;;;;;;5.67;1.30;;;21.90;23.30;;;;;;5272055;28;20245;-57
2022/04/26 08:37:19;;;;;;;4.50;1.37;;;21.00;24.30;;;;;;5277427;28;20273;-57
2022/04/26 08:39:52;;;;;;;1.57;1.57;;;20.20;24.60;;;;;;5277242;28;20481;-59
2022/04/26 08:42:41;;;;;;;1.47;1.37;;;20.10;25.90;;;;;;5265475;28;20444;-56
2022/04/26 08:45:20;;;;;;;1.63;1.50;;;20.50;25.80;;;;;;5266796;28;20459;-55
2022/04/26 08:51:00;;;;;;;1.00;1.00;;;19.90;26.50;;;;;;5269056;28;20459;-57
2022/04/26 08:53:33;;;;;;;2.00;1.90;;;20.00;26.70;;;;;;5270415;28;20436;-54
2022/04/26 08:56:07;;;;;;;1.73;1.63;;;19.90;26.90;;;;;;5275006;28;20481;-58
2022/04/26 08:58:39;;;;;;;5.23;1.57;;;19.30;27.00;;;;;;5269011;28;20439;-58
2022/04/26 09:01:24;;;;;;;2.00;1.80;;;18.00;27.70;;;;;;5271257;28;20467;-55
2022/04/26 09:03:56;;;;;;;2.50;1.33;;;16.90;29.10;;;;;;5275846;28;20475;-57
2022/04/26 09:06:35;;;;;;;2.40;1.70;;;16.10;30.70;;;;;;5249866;28;20848;-56
2022/04/26 09:09:14;;;;;;;17.33;2.30;;;15.70;31.60;;;;;;5270912;28;21038;-55
2022/04/26 09:11:46;;;;;;;2.03;1.93;;;15.50;32.90;;;;;;5264752;28;20464;-54
2022/04/26 09:14:33;;;;;;;8.93;2.20;;;15.10;33.10;;;;;;5275992;28;20492;-56
2022/04/26 09:17:08;;;;;;;2.10;2.00;;;14.80;34.20;;;;;;5273613;28;20814;-55
2022/04/26 09:19:49;;;;;;;2.63;1.73;;;14.80;34.70;;;;;;5265948;28;20441;-57
2022/04/26 09:22:22;;;;;;;2.80;1.90;;;15.00;34.70;;;;;;5267535;28;20526;-55
2022/04/26 09:25:09;;;;;;;2.80;2.50;;;14.90;34.60;;;;;;5271719;28;20509;-53
2022/04/26 09:27:41;;;;;;;2.07;1.97;;;14.90;34.90;;;;;;5269794;28;20826;-57
2022/04/26 09:30:13;;;;;;;2.00;1.90;;;14.90;35.30;;;;;;5268747;28;20451;-56
2022/04/26 09:32:46;;;;;;;2.20;2.00;;;14.80;35.60;;;;;;5262296;28;20928;-54
2022/04/26 09:35:21;;;;;;;3.43;2.60;;;14.60;36.80;;;;;;5265644;28;20527;-56
2022/04/26 09:37:52;;;;;;;3.90;2.20;;;14.30;37.10;;;;;;5259694;28;20431;-55
2022/04/26 09:40:28;;;;;;;2.27;2.07;;;14.10;37.60;;;;;;5257452;28;20466;-56
2022/04/26 09:42:58;;;;;;;3.90;2.33;;;14.10;38.10;;;;;;5253622;28;20228;-57
2022/04/26 09:45:29;;;;;;;2.23;2.03;;;14.20;38.00;;;;;;5258812;28;20560;-56
2022/04/26 09:47:59;;;;;;;2.50;2.40;;;14.40;37.70;;;;;;5259402;28;20196;-55
2022/04/26 09:50:30;;;;;;;3.23;2.07;;;14.50;37.70;;;;;;5262548;28;20241;-56
2022/04/26 09:53:01;;;;;;;3.43;2.43;;;14.60;37.40;;;;;;5261933;28;20864;-56
2022/04/26 09:55:32;;;;;;;2.53;2.33;;;14.70;37.20;;;;;;5264102;28;20193;-55
2022/04/26 09:58:05;;;;;;;2.13;2.03;;;14.80;37.00;;;;;;5259887;28;20443;-55
2022/04/26 10:00:39;;;;;;;1.93;1.87;;;15.00;37.20;;;;;;5259650;28;20213;-54
2022/04/26 10:03:15;;;;;;;3.27;1.90;;;15.10;36.70;;;;;;5262614;28;20449;-55
2022/04/26 10:05:49;;;;;;;2.63;2.10;;;15.20;36.30;;;;;;5255601;28;20451;-57
2022/04/26 10:08:21;;;;;;;2.03;1.93;;;15.40;36.40;;;;;;5263904;28;20781;-55
2022/04/26 10:10:51;;;;;;;7.17;2.13;;;15.50;35.70;;;;;;5264184;28;20483;-55
2022/04/26 10:13:32;;;;;;;2.27;2.17;;;15.40;36.40;;;;;;5265229;28;20780;-56
2022/04/26 10:16:06;;;;;;;3.33;2.43;;;15.30;35.90;;;;;;5263610;28;20268;-56
2022/04/26 10:18:39;;;;;;;2.40;2.20;;;15.10;36.60;;;;;;5261452;28;20457;-55
2022/04/26 10:21:22;;;;;;;2.40;2.30;;;15.10;36.90;;;;;;5259054;28;20842;-54
2022/04/26 10:23:56;;;;;;;3.13;2.57;;;15.00;37.20;;;;;;5260682;28;20492;-53
2022/04/26 10:26:27;;;;;;;2.63;1.97;;;14.80;37.80;;;;;;5261176;28;20794;-55
2022/04/26 10:29:01;;;;;;;2.97;2.77;;;14.80;37.90;;;;;;5266385;28;20447;-55
2022/04/26 10:31:35;;;;;;;2.27;2.17;;;14.70;38.30;;;;;;5263147;28;20529;-54
2022/04/26 10:34:18;;;;;;;3.77;2.13;;;14.80;38.20;;;;;;5264759;28;20454;-54
2022/04/26 10:36:48;;;;;;;5.23;2.43;;;15.00;37.50;;;;;;5260986;28;20526;-58
2022/04/26 10:39:33;;;;;;;2.70;2.50;;;15.10;37.20;;;;;;5262844;28;20534;-56
2022/04/26 10:42:11;;;;;;;2.90;2.80;;;15.20;37.50;;;;;;5255459;28;20653;-57
2022/04/26 10:44:43;;;;;;;2.60;2.50;;;15.30;37.40;;;;;;5263351;28;20482;-56
2022/04/26 10:47:20;;;;;;;1.70;1.70;;;15.10;36.70;;;;;;5262725;28;20510;-59
2022/04/26 10:49:52;;;;;;;3.53;2.40;;;15.00;37.20;;;;;;5252453;28;20547;-54
2022/04/26 10:52:23;;;;;;;2.77;2.67;;;15.10;37.50;;;;;;5253536;28;20486;-55
2022/04/26 10:55:07;;;;;;;5.43;1.97;;;15.20;37.90;;;;;;5250985;28;20583;-55
2022/04/26 10:57:44;;;;;;;3.30;2.93;;;15.30;37.20;;;;;;5262049;28;20451;-55
2022/04/26 11:00:41;;;;;;;3.03;2.80;;;15.70;36.60;;;;;;5245737;28;21007;-58
2022/04/26 11:03:13;;;;;;;1.93;1.83;;;15.80;36.50;;;;;;5252224;28;20467;-55
2022/04/26 11:05:44;;;;;;;3.40;2.83;;;15.80;36.60;;;;;;5255532;28;20437;-56
2022/04/26 11:08:16;;;;;;;3.60;3.30;;;15.70;37.00;;;;;;5253075;28;20480;-54
2022/04/26 11:11:02;;;;;;;4.00;3.27;;;15.50;37.20;;;;;;5254571;28;20202;-57
2022/04/26 11:13:35;;;;;;;4.63;3.27;;;15.40;37.30;;;;;;5261756;28;20534;-56
2022/04/26 11:16:12;;;;;;;3.53;2.13;;;15.50;37.70;;;;;;5259134;28;20462;-57
2022/04/26 11:18:43;;;;;;;2.33;2.20;;;15.60;37.10;;;;;;5260668;28;20441;-55
2022/04/26 11:21:14;;;;;;;2.70;2.27;;;15.40;36.70;;;;;;5262014;28;20459;-55
2022/04/26 11:29:43;;;;;;;2.53;2.33;;;15.60;36.30;;;;;;5260465;28;20446;-55
2022/04/26 11:32:43;;;;;;;3.20;2.90;;;15.50;36.30;;;;;;5261476;28;20546;-56
2022/04/26 11:35:15;;;;;;;2.93;2.10;;;15.80;37.10;;;;;;5251903;28;20489;-54
2022/04/26 11:37:46;;;;;;;2.57;2.30;;;16.20;35.90;;;;;;5251823;28;20447;-57
2022/04/26 11:40:31;;;;;;;2.67;2.47;;;16.60;35.60;;;;;;5258152;28;21005;-55
2022/04/26 11:43:14;;;;;;;2.93;2.20;;;17.00;34.30;;;;;;5260571;28;20427;-58
2022/04/26 11:45:49;;;;;;;2.40;2.30;;;17.10;33.80;;;;;;5263353;28;20450;-59
2022/04/26 11:48:29;;;;;;;5.13;2.30;;;16.80;33.40;;;;;;5258337;28;20430;-55
2022/04/26 11:51:01;;;;;;;3.97;2.20;;;16.50;33.10;;;;;;5262024;28;20482;-56
2022/04/26 11:53:36;;;;;;;2.57;2.47;;;16.30;33.70;;;;;;5263948;28;21082;-55
2022/04/26 11:56:07;;;;;;;2.57;2.37;;;16.30;33.80;;;;;;5264817;28;20855;-54
2022/04/26 11:58:40;;;;;;;7.50;3.90;;;16.20;33.40;;;;;;5266392;28;20436;-59
2022/04/26 12:01:16;;;;;;;4.83;2.77;;;16.40;34.00;;;;;;5256313;28;20213;-58
2022/04/26 12:03:53;;;;;;;2.40;2.30;;;16.70;33.90;;;;;;5264780;28;20467;-55
2022/04/26 12:06:27;;;;;;;5.60;2.47;;;17.00;33.50;;;;;;5261260;28;20439;-56
2022/04/26 12:09:00;;;;;;;3.10;2.50;;;17.30;33.40;;;;;;5262364;28;20454;-57
2022/04/26 12:11:36;;;;;;;4.07;2.20;;;17.20;32.80;;;;;;5266768;28;20455;-55
2022/04/26 12:14:11;;;;;;;2.00;1.90;;;16.80;31.60;;;;;;5261660;28;20474;-56
2022/04/26 12:16:54;;;;;;;2.00;1.97;;;16.70;31.50;;;;;;5259212;28;20436;-57
2022/04/26 12:19:38;;;;;;;2.37;2.27;;;16.40;32.30;;;;;;5262991;28;20431;-55
2022/04/26 12:22:09;;;;;;;1.93;1.83;;;16.40;32.80;;;;;;5267476;28;20437;-58
2022/04/26 12:24:48;;;;;;;1.77;1.67;;;16.70;33.50;;;;;;5264733;28;20471;-57
2022/04/26 12:27:22;;;;;;;1.90;1.80;;;16.90;33.60;;;;;;5262697;28;20788;-55
2022/04/26 12:29:53;;;;;;;2.57;2.43;;;17.00;33.50;;;;;;5266416;28;20522;-56
2022/04/26 12:32:26;;;;;;;1.73;1.63;;;17.10;33.20;;;;;;5263864;28;20507;-58
2022/04/26 12:35:00;;;;;;;1.90;1.60;;;17.10;32.70;;;;;;5259802;28;20174;-56
2022/04/26 12:37:31;;;;;;;8.73;2.83;;;17.00;32.90;;;;;;5261410;28;20518;-56
2022/04/26 12:40:07;;;;;;;1.80;1.60;;;17.20;32.50;;;;;;5256383;28;20455;-57
2022/04/26 12:42:39;;;;;;;3.60;2.33;;;17.20;32.10;;;;;;5255868;28;20303;-57
2022/04/26 12:45:21;;;;;;;2.30;2.10;;;16.90;31.80;;;;;;5253267;28;20460;-56
2022/04/26 12:51:25;;;;;;;2.50;1.97;;;16.70;32.60;;;;;;5259839;28;20459;-56
2022/04/26 12:54:08;;;;;;;5.50;3.47;;;16.80;32.10;;;;;;5254998;28;20527;-56
2022/04/26 12:56:40;;;;;;;3.13;2.00;;;16.90;32.00;;;;;;5253194;28;20451;-55
2022/04/26 12:59:15;;;;;;;2.70;1.97;;;16.90;31.40;;;;;;5262490;28;20501;-56
2022/04/26 13:01:46;;;;;;;2.00;1.90;;;16.90;31.50;;;;;;5253347;28;20452;-56
2022/04/26 13:04:17;;;;;;;2.10;2.00;;;16.80;31.70;;;;;;5262274;28;20505;-56
2022/04/26 13:06:48;;;;;;;2.60;2.33;;;16.70;31.40;;;;;;5260617;28;20546;-56
2022/04/26 13:09:19;;;;;;;3.23;2.17;;;16.40;31.70;;;;;;5268822;28;20234;-56
2022/04/26 13:11:53;;;;;;;2.40;2.30;;;16.20;31.80;;;;;;5266496;28;20433;-55
2022/04/26 13:14:25;;;;;;;5.03;2.07;;;16.10;32.10;;;;;;5261298;28;20213;-56
2022/04/26 13:16:56;;;;;;;1.60;1.53;;;16.10;32.10;;;;;;5261189;28;20440;-57
2022/04/26 13:19:26;;;;;;;2.23;2.13;;;16.10;32.10;;;;;;5266910;28;20466;-56
2022/04/26 13:21:57;;;;;;;2.23;2.00;;;16.10;32.10;;;;;;5267831;28;20192;-55
2022/04/26 13:24:29;;;;;;;1.67;1.67;;;16.00;32.40;;;;;;5257527;28;20197;-54
2022/04/26 13:27:00;;;;;;;1.77;1.67;;;15.90;32.40;;;;;;5257298;28;20935;-58
2022/04/26 13:29:30;;;;;;;2.00;1.90;;;15.90;32.60;;;;;;5265617;28;20443;-56
2022/04/26 13:32:02;;;;;;;1.73;1.53;;;15.80;32.70;;;;;;5254695;28;20182;-55
2022/04/26 13:34:33;;;;;;;3.60;2.43;;;15.70;32.70;;;;;;5264370;28;20201;-55
2022/04/26 13:37:07;;;;;;;3.00;1.80;;;15.70;32.40;;;;;;5266061;28;20803;-54
2022/04/26 13:39:44;;;;;;;2.83;1.90;;;15.70;33.20;;;;;;5261697;28;20269;-56
2022/04/26 13:42:15;;;;;;;1.63;1.57;;;15.50;34.00;;;;;;5254137;28;20419;-58
2022/04/26 13:44:46;;;;;;;1.83;1.73;;;15.50;35.10;;;;;;5266732;28;20559;-55
2022/04/26 13:47:17;;;;;;;1.70;1.50;;;15.50;34.30;;;;;;5264792;28;20444;-55
2022/04/26 13:52:22;;;;;;;2.50;2.30;;;15.50;34.60;;;;;;5199949;28;20227;-49
2022/04/26 13:54:52;;;;;;;1.80;1.70;;;15.50;34.70;;;;;;5201426;28;20445;-50
2022/04/26 13:57:24;;;;;;;3.90;2.33;;;15.40;34.00;;;;;;5204000;28;20509;-50
2022/04/26 13:59:54;;;;;;;1.47;1.37;;;15.30;34.00;;;;;;5203668;28;20191;-50
2022/04/26 14:02:25;;;;;;;2.23;2.13;;;15.30;34.00;;;;;;5204645;28;20572;-50
2022/04/26 14:04:56;;;;;;;2.00;1.90;;;15.50;34.40;;;;;;5199158;28;20275;-49
2022/04/26 14:07:27;;;;;;;5.10;2.27;;;15.60;34.60;;;;;;5202521;28;20480;-51
2022/04/26 14:09:58;;;;;;;4.97;2.40;;;15.60;34.40;;;;;;5203429;28;20807;-51
2022/04/26 14:12:28;;;;;;;1.73;1.63;;;15.60;33.80;;;;;;5201465;28;20254;-50
2022/04/26 14:23:26;;;;;;;1.30;1.30;;;15.60;31.90;;;;;;5197234;28;20817;-50
2022/04/26 14:25:57;;;;;;;1.20;1.20;;;15.80;32.00;;;;;;5198131;28;20442;-50
2022/04/26 14:28:28;;;;;;;1.23;1.23;;;15.80;31.80;;;;;;5200053;28;20188;-50
2022/04/26 14:30:59;;;;;;;1.30;1.30;;;15.80;31.80;;;;;;5204966;28;20534;-50
2022/04/26 14:33:29;;;;;;;3.00;2.17;;;15.80;31.80;;;;;;5202332;28;20195;-49
2022/04/26 14:36:00;;;;;;;1.50;1.40;;;15.90;31.20;;;;;;5204119;28;20180;-52
2022/04/26 14:38:32;;;;;;;1.00;1.00;;;15.90;30.90;;;;;;5201505;28;20652;-50
2022/04/26 14:41:03;;;;;;;1.50;1.40;;;15.90;31.10;;;;;;5204127;28;20463;-50
2022/04/26 14:43:33;;;;;;;2.43;1.47;;;15.90;30.80;;;;;;5202636;28;20516;-51
2022/04/26 14:46:04;;;;;;;3.50;1.10;;;15.80;30.60;;;;;;5201755;28;20179;-50
2022/04/26 14:48:36;;;;;;;3.50;1.67;;;15.80;31.00;;;;;;5204889;28;20418;-50
2022/04/26 14:51:06;;;;;;;1.30;1.20;;;15.90;31.20;;;;;;5204832;28;20368;-50
2022/04/26 14:53:38;;;;;;;1.57;1.47;;;16.00;31.30;;;;;;5203144;28;20991;-49
2022/04/26 14:56:12;;;;;;;1.43;1.23;;;16.20;31.10;;;;;;5201591;28;20211;-49
2022/04/26 14:58:42;;;;;;;1.80;1.70;;;16.30;30.80;;;;;;5201165;28;20579;-50
2022/04/26 15:01:13;;;;;;;1.50;1.27;;;16.60;30.70;;;;;;5204061;28;20454;-52
2022/04/26 15:03:44;;;;;;;1.17;1.17;;;16.80;30.80;;;;;;5202419;28;20203;-49
2022/04/26 15:06:15;;;;;;;2.00;1.67;;;17.00;30.10;;;;;;5204414;28;20214;-50
2022/04/26 15:11:35;;;;;;;5.37;1.80;;;17.30;29.90;;;;;;5194092;28;20532;-50
2022/04/26 15:16:54;;;;;;;1.30;1.30;;;17.00;30.20;;;;;;5199501;28;20186;-53
2022/04/26 15:19:25;;;;;;;3.07;1.27;;;16.90;30.30;;;;;;5192950;28;20442;-55
2022/04/26 15:21:55;;;;;;;1.90;1.43;;;16.80;30.60;;;;;;5199925;28;20199;-55
2022/04/26 15:24:26;;;;;;;1.50;1.40;;;16.70;30.90;;;;;;5199831;28;20222;-49
2022/04/26 15:26:58;;;;;;;4.07;1.50;;;16.60;31.20;;;;;;5191391;28;20242;-51
2022/04/26 15:29:31;;;;;;;1.30;1.20;;;16.60;31.50;;;;;;5207729;28;20615;-49
2022/04/26 15:32:02;;;;;;;2.20;1.70;;;16.60;31.80;;;;;;5205568;28;20461;-47
2022/04/26 15:34:33;;;;;;;2.60;2.40;;;16.60;31.70;;;;;;5202545;28;20791;-49
2022/04/26 15:37:04;;;;;;;2.90;1.63;;;16.60;32.30;;;;;;5202253;28;20291;-46
2022/04/26 15:39:35;;;;;;;8.60;2.00;;;16.60;32.00;;;;;;5203076;28;20191;-47
2022/04/26 15:42:06;;;;;;;1.93;1.83;;;16.70;32.30;;;;;;5205400;28;20444;-49
2022/04/26 15:44:37;;;;;;;1.67;1.57;;;16.80;32.50;;;;;;5204332;28;20242;-53
2022/04/26 15:47:07;;;;;;;3.90;1.57;;;17.00;32.50;;;;;;5191523;28;20426;-53
2022/04/26 15:49:38;;;;;;;1.83;1.73;;;17.00;32.40;;;;;;5202736;28;20212;-52
2022/04/26 15:52:09;;;;;;;1.40;1.40;;;17.00;32.70;;;;;;5202965;28;20195;-52
2022/04/26 15:54:41;;;;;;;2.03;1.93;;;16.80;32.40;;;;;;5203171;28;20253;-55
2022/04/26 15:57:13;;;;;;;1.83;1.70;;;16.80;32.80;;;;;;5198649;28;20227;-53
2022/04/26 15:59:45;;;;;;;1.73;1.73;;;16.80;33.00;;;;;;5195667;28;20795;-53
2022/04/26 16:02:16;;;;;;;5.70;2.70;;;16.70;33.10;;;;;;5202909;28;20849;-52
2022/04/26 16:04:47;;;;;;;2.57;2.37;;;16.80;33.30;;;;;;5194159;28;20463;-54
2022/04/26 16:07:18;;;;;;;3.33;2.37;;;16.70;33.20;;;;;;5198188;28;20455;-54
2022/04/26 16:21:05;;;;;;;2.00;1.90;;;16.50;33.70;;;;;;5203792;28;20476;-50
2022/04/26 16:23:36;;;;;;;3.03;2.67;;;16.50;33.90;;;;;;5197284;28;20889;-50
2022/04/26 16:26:07;;;;;;;2.97;2.77;;;16.60;33.60;;;;;;5195394;28;20443;-50
2022/04/26 16:28:38;;;;;;;2.47;2.20;;;16.70;33.30;;;;;;5202628;28;20180;-51
2022/04/26 16:31:08;;;;;;;2.20;1.83;;;16.60;33.20;;;;;;5204927;28;20508;-51
2022/04/26 16:33:39;;;;;;;2.37;1.77;;;16.70;33.70;;;;;;5208942;28;20188;-52
2022/04/26 16:36:11;;;;;;;3.83;2.13;;;16.70;33.70;;;;;;5205435;28;20199;-51
2022/04/26 16:38:42;;;;;;;2.20;2.00;;;16.70;33.90;;;;;;5187499;28;20263;-50
2022/04/26 16:41:12;;;;;;;11.20;1.87;;;16.70;33.00;;;;;;5203026;28;20553;-51
2022/04/26 16:43:43;;;;;;;2.33;2.20;;;16.60;33.00;;;;;;5203293;28;20212;-51
2022/04/26 16:46:16;;;;;;;3.67;2.47;;;16.50;33.30;;;;;;5204065;28;20230;-50
2022/04/26 16:48:46;;;;;;;3.80;2.73;;;16.50;33.00;;;;;;5199950;28;20267;-51
2022/04/26 16:51:18;;;;;;;3.90;1.93;;;16.50;32.90;;;;;;5197274;28;20894;-50
2022/04/26 16:53:49;;;;;;;4.70;4.30;;;16.40;32.90;;;;;;5206737;28;20722;-49
2022/04/26 16:56:20;;;;;;;4.40;3.70;;;16.30;32.80;;;;;;5206022;28;20445;-50
2022/04/26 16:58:50;;;;;;;3.17;2.97;;;16.10;33.00;;;;;;5201618;28;20191;-50
2022/04/26 17:01:21;;;;;;;8.00;3.53;;;16.10;33.30;;;;;;5197636;28;20220;-51
2022/04/26 17:03:51;;;;;;;7.50;3.10;;;15.80;33.30;;;;;;5206174;28;20302;-50
2022/04/26 17:06:22;;;;;;;3.03;2.80;;;15.80;33.50;;;;;;5212702;28;20179;-51
2022/04/26 17:08:52;;;;;;;8.00;3.40;;;15.70;33.70;;;;;;5198915;28;20233;-50
2022/04/26 17:11:42;;;;;;;2.80;2.60;;;15.70;33.70;;;;;;5196618;28;20211;-50
2022/04/26 17:14:14;;;;;;;2.30;2.20;;;15.80;34.00;;;;;;5214523;28;20183;-50
2022/04/26 17:16:47;;;;;;;1.70;1.27;;;15.80;34.20;;;;;;5199743;28;20518;-51
2022/04/26 17:19:18;;;;;;;7.93;1.60;;;15.80;34.40;;;;;;5201920;28;20427;-51
2022/04/26 17:21:50;;;;;;;3.07;2.97;;;15.80;34.30;;;;;;5203882;28;20462;-51
2022/04/26 17:27:10;;;;;;;2.83;2.00;;;15.90;34.40;;;;;;5203024;28;20433;-50
2022/04/26 17:29:41;;;;;;;7.80;2.23;;;15.80;34.50;;;;;;5200710;28;20434;-47
2022/04/26 17:32:14;;;;;;;5.70;2.17;;;15.80;34.50;;;;;;5203196;28;20488;-46
2022/04/26 17:34:44;;;;;;;2.43;2.20;;;15.70;34.50;;;;;;5201991;28;20184;-46
2022/04/26 17:37:15;;;;;;;2.13;1.90;;;15.60;34.60;;;;;;5204815;28;20844;-47
2022/04/26 17:39:46;;;;;;;1.20;1.20;;;15.60;34.60;;;;;;5208247;28;20259;-47